createdAt,value
2023-04-27T00:01:41.208Z,19.25
2023-04-27T00:04:08.054Z,16.00
2023-04-27T00:06:35.087Z,18.50
2023-04-27T00:09:04.079Z,21.00
2023-04-27T00:11:30.718Z,21.50
2023-04-27T00:13:59.702Z,13.00
2023-04-27T00:16:33.580Z,18.75
2023-04-27T00:19:00.851Z,15.50
2023-04-27T00:21:27.316Z,17.33
2023-04-27T00:23:54.429Z,16.75
2023-04-27T00:26:22.832Z,16.00
2023-04-27T00:28:49.346Z,16.25
2023-04-27T00:31:18.283Z,17.75
2023-04-27T00:33:44.660Z,16.25
2023-04-27T00:36:11.140Z,22.25
2023-04-27T00:38:37.548Z,28.75
2023-04-27T00:41:06.713Z,27.25
2023-04-27T00:43:33.933Z,29.25
2023-04-27T00:46:03.267Z,26.00
2023-04-27T00:48:29.932Z,28.50
2023-04-27T00:50:56.318Z,32.50
2023-04-27T00:53:25.150Z,28.25
2023-04-27T00:55:51.516Z,29.25
2023-04-27T00:58:17.901Z,22.25
2023-04-27T01:00:44.303Z,23.50
2023-04-27T01:03:13.777Z,33.75
2023-04-27T01:05:41.002Z,11.50
2023-04-27T01:08:07.490Z,24.00
2023-04-27T01:10:33.945Z,28.75
2023-04-27T01:13:00.604Z,28.25
2023-04-27T01:15:27.282Z,28.00
2023-04-27T01:18:00.549Z,26.00
2023-04-27T01:20:32.859Z,20.75
2023-04-27T01:23:01.959Z,26.25
2023-04-27T01:25:28.345Z,23.25
2023-04-27T01:27:54.961Z,21.50
2023-04-27T01:30:24.441Z,26.75
2023-04-27T01:32:51.097Z,28.50
2023-04-27T01:35:17.794Z,26.75
2023-04-27T01:37:44.345Z,28.75
2023-04-27T01:40:10.943Z,26.00
2023-04-27T01:42:40.019Z,23.25
2023-04-27T01:45:10.566Z,22.50
2023-04-27T01:47:37.132Z,21.75
2023-04-27T01:50:04.065Z,26.75
2023-04-27T01:52:30.906Z,18.00
2023-04-27T01:54:57.340Z,23.50
2023-04-27T01:57:23.771Z,33.50
2023-04-27T01:59:50.225Z,26.00
2023-04-27T02:02:16.720Z,25.00
2023-04-27T02:04:43.627Z,29.00
2023-04-27T02:07:12.272Z,25.25
2023-04-27T02:09:38.648Z,23.00
2023-04-27T02:12:05.624Z,26.50
2023-04-27T02:14:32.024Z,21.75
2023-04-27T02:16:58.458Z,25.50
2023-04-27T02:19:24.908Z,23.75
2023-04-27T02:21:51.302Z,24.00
2023-04-27T02:24:17.825Z,24.25
2023-04-27T02:26:44.465Z,26.25
2023-04-27T02:29:13.613Z,20.75
2023-04-27T02:31:42.967Z,20.25
2023-04-27T02:34:09.422Z,23.75
2023-04-27T02:36:38.345Z,20.75
2023-04-27T02:39:05.711Z,22.75
2023-04-27T02:41:32.640Z,23.75
2023-04-27T02:43:59.011Z,20.00
2023-04-27T02:46:25.746Z,18.00
2023-04-27T02:48:52.241Z,30.25
2023-04-27T02:51:18.589Z,33.50
2023-04-27T02:53:44.970Z,30.75
2023-04-27T02:56:11.429Z,20.50
2023-04-27T02:58:38.161Z,23.50
2023-04-27T03:01:06.834Z,26.00
2023-04-27T03:03:33.432Z,24.25
2023-04-27T03:05:59.987Z,24.25
2023-04-27T03:08:26.441Z,20.25
2023-04-27T03:10:53.126Z,19.50
2023-04-27T03:13:19.534Z,28.25
2023-04-27T03:15:46.339Z,26.75
2023-04-27T03:18:12.835Z,15.25
2023-04-27T03:20:39.278Z,31.00
2023-04-27T03:23:09.216Z,25.75
2023-04-27T03:25:35.634Z,22.75
2023-04-27T03:28:05.076Z,10.25
2023-04-27T03:30:31.462Z,25.25
2023-04-27T03:32:59.095Z,28.00
2023-04-27T03:35:25.589Z,31.25
2023-04-27T03:37:51.959Z,25.75
2023-04-27T03:40:18.332Z,28.00
2023-04-27T03:42:47.201Z,31.75
2023-04-27T03:45:13.706Z,31.75
2023-04-27T03:47:40.265Z,27.50
2023-04-27T03:50:06.955Z,25.00
2023-04-27T03:52:33.487Z,27.00
2023-04-27T03:54:59.974Z,23.25
2023-04-27T03:57:26.480Z,25.00
2023-04-27T03:59:52.880Z,19.25
2023-04-27T04:02:19.449Z,30.50
2023-04-27T04:04:47.936Z,22.75
2023-04-27T04:07:14.591Z,24.50
2023-04-27T04:09:51.222Z,20.50
2023-04-27T04:12:17.788Z,23.25
2023-04-27T04:17:27.286Z,21.25
2023-04-27T04:19:57.473Z,24.25
2023-04-27T04:22:26.761Z,24.00
2023-04-27T04:24:53.734Z,24.67
2023-04-27T04:27:23.835Z,25.33
2023-04-27T04:29:52.268Z,26.00
2023-04-27T04:32:20.022Z,25.67
2023-04-27T04:34:52.890Z,22.00
2023-04-27T04:37:19.395Z,30.00
2023-04-27T04:39:49.203Z,19.00
2023-04-27T04:42:17.214Z,19.33
2023-04-27T04:44:46.369Z,21.67
2023-04-27T04:50:51.243Z,18.00
2023-04-27T04:53:18.885Z,20.67
2023-04-27T04:55:45.923Z,21.00
2023-04-27T04:58:14.603Z,21.33
2023-04-27T05:00:42.110Z,24.67
2023-04-27T05:03:08.809Z,27.00
2023-04-27T05:05:35.331Z,24.33
2023-04-27T05:08:01.748Z,23.67
2023-04-27T05:10:28.214Z,22.67
2023-04-27T05:12:54.691Z,15.67
2023-04-27T05:15:21.212Z,22.00
2023-04-27T05:17:47.766Z,20.00
2023-04-27T05:20:14.381Z,21.67
2023-04-27T05:22:40.751Z,20.33
2023-04-27T05:25:07.334Z,23.75
2023-04-27T05:27:33.741Z,24.75
2023-04-27T05:30:00.239Z,15.50
2023-04-27T05:32:26.706Z,19.00
2023-04-27T05:34:53.137Z,27.75
2023-04-27T05:37:19.573Z,23.00
2023-04-27T05:39:45.982Z,23.25
2023-04-27T05:42:12.397Z,23.50
2023-04-27T05:44:38.890Z,19.00
2023-04-27T05:47:05.354Z,22.00
2023-04-27T05:49:31.782Z,19.50
2023-04-27T05:51:59.121Z,19.00
2023-04-27T05:54:25.759Z,22.50
2023-04-27T05:56:52.251Z,23.25
2023-04-27T05:59:20.634Z,22.00
2023-04-27T06:01:47.144Z,17.75
2023-04-27T06:06:39.994Z,24.50
2023-04-27T06:09:06.593Z,19.00
2023-04-27T06:11:33.049Z,24.00
2023-04-27T06:13:59.489Z,21.50
2023-04-27T06:16:26.144Z,19.75
2023-04-27T06:18:52.860Z,20.25
2023-04-27T06:21:19.292Z,12.00
2023-04-27T06:23:45.797Z,26.00
2023-04-27T06:26:12.184Z,24.50
2023-04-27T06:28:38.671Z,26.50
2023-04-27T06:31:06.431Z,24.00
2023-04-27T06:33:33.153Z,28.00
2023-04-27T06:36:00.657Z,22.25
2023-04-27T06:38:27.415Z,20.00
2023-04-27T06:40:53.932Z,21.50
2023-04-27T06:43:20.387Z,16.75
2023-04-27T06:45:46.849Z,21.00
2023-04-27T06:48:13.455Z,21.50
2023-04-27T06:50:39.978Z,21.00
2023-04-27T06:53:06.547Z,23.50
2023-04-27T06:55:33.113Z,24.25
2023-04-27T06:57:59.555Z,17.50
2023-04-27T07:00:27.202Z,20.75
2023-04-27T07:02:53.833Z,20.75
2023-04-27T07:05:20.641Z,2.50
2023-04-27T07:07:47.213Z,22.00
2023-04-27T07:10:13.610Z,17.75
2023-04-27T07:12:40.354Z,14.00
2023-04-27T07:15:07.224Z,11.50
2023-04-27T07:17:33.922Z,11.75
2023-04-27T07:20:06.079Z,14.00
2023-04-27T07:22:33.311Z,13.50
2023-04-27T07:24:59.775Z,14.75
2023-04-27T07:27:26.688Z,20.00
2023-04-27T07:29:53.448Z,13.50
2023-04-27T07:32:20.060Z,10.25
2023-04-27T07:34:53.536Z,10.50
2023-04-27T07:37:21.087Z,16.50
2023-04-27T07:39:48.716Z,7.00
2023-04-27T07:42:15.409Z,5.25
2023-04-27T07:44:42.545Z,6.25
2023-04-27T07:47:09.170Z,19.00
2023-04-27T07:49:35.884Z,9.00
2023-04-27T07:52:02.260Z,8.50
2023-04-27T07:54:28.895Z,6.75
2023-04-27T07:56:55.389Z,9.00
2023-04-27T07:59:21.991Z,14.75
2023-04-27T08:01:48.497Z,11.25
2023-04-27T08:04:16.343Z,7.75
2023-04-27T08:06:43.438Z,2.75
2023-04-27T08:09:10.214Z,6.25
2023-04-27T08:11:36.797Z,4.00
2023-04-27T08:14:03.421Z,6.00
2023-04-27T08:16:29.883Z,6.50
2023-04-27T08:18:57.551Z,6.50
2023-04-27T08:21:25.224Z,7.50
2023-04-27T08:23:51.817Z,6.00
2023-04-27T08:26:18.380Z,6.75
2023-04-27T08:28:44.885Z,3.50
2023-04-27T08:31:11.349Z,7.75
2023-04-27T08:33:37.880Z,8.50
2023-04-27T08:36:04.470Z,5.50
2023-04-27T08:38:31.047Z,5.75
2023-04-27T08:41:00.804Z,5.00
2023-04-27T08:43:35.970Z,5.00
2023-04-27T08:46:02.742Z,10.00
2023-04-27T08:48:29.273Z,7.00
2023-04-27T08:50:56.929Z,8.00
2023-04-27T08:53:23.863Z,5.25
2023-04-27T08:55:50.584Z,5.50
2023-04-27T08:58:16.978Z,11.75
2023-04-27T09:00:45.204Z,9.50
2023-04-27T09:03:24.941Z,5.50
2023-04-27T09:06:03.398Z,6.50
2023-04-27T09:08:46.960Z,4.25
2023-04-27T09:11:14.303Z,9.75
2023-04-27T09:13:42.338Z,8.75
2023-04-27T09:16:09.240Z,7.75
2023-04-27T09:18:37.985Z,4.00
2023-04-27T09:21:04.507Z,9.50
2023-04-27T09:23:31.430Z,5.25
2023-04-27T09:25:58.991Z,7.75
2023-04-27T09:28:27.585Z,9.50
2023-04-27T09:30:58.274Z,6.75
2023-04-27T09:33:25.545Z,15.75
2023-04-27T09:35:52.500Z,10.75
2023-04-27T09:38:19.880Z,12.00
2023-04-27T09:40:46.418Z,13.50
2023-04-27T09:43:13.015Z,10.75
2023-04-27T09:45:39.834Z,24.75
2023-04-27T09:48:06.607Z,19.00
2023-04-27T09:50:40.197Z,20.75
2023-04-27T09:53:14.041Z,12.75
2023-04-27T09:55:43.523Z,12.75
2023-04-27T09:58:28.468Z,9.75
2023-04-27T10:00:57.924Z,13.50
2023-04-27T10:03:30.939Z,13.00
2023-04-27T10:06:20.608Z,12.25
2023-04-27T10:08:47.119Z,28.75
2023-04-27T10:11:15.522Z,21.00
2023-04-27T10:13:52.316Z,16.75
2023-04-27T10:16:19.967Z,8.75
2023-04-27T10:18:54.476Z,5.25
2023-04-27T10:21:21.244Z,4.50
2023-04-27T10:23:48.916Z,11.25
2023-04-27T10:26:25.968Z,6.00
2023-04-27T10:28:58.729Z,7.50
2023-04-27T10:31:29.507Z,3.00
2023-04-27T10:34:08.507Z,5.25
2023-04-27T10:36:38.748Z,10.50
2023-04-27T10:39:29.916Z,9.50
2023-04-27T10:42:03.128Z,6.00
2023-04-27T10:44:30.463Z,4.00
2023-04-27T10:46:59.671Z,5.00
2023-04-27T10:49:29.719Z,4.75
2023-04-27T10:51:58.108Z,6.00
2023-04-27T10:54:28.749Z,6.25
2023-04-27T10:57:02.319Z,6.00
2023-04-27T10:59:28.762Z,6.00
2023-04-27T11:01:55.342Z,4.00
2023-04-27T11:04:21.835Z,6.75
2023-04-27T11:06:48.416Z,7.00
2023-04-27T11:09:25.033Z,0.50
2023-04-27T11:11:51.612Z,13.75
2023-04-27T11:14:24.042Z,14.25
2023-04-27T11:16:50.700Z,9.00
2023-04-27T11:19:17.283Z,8.75
2023-04-27T11:21:44.144Z,13.50
2023-04-27T11:24:12.114Z,13.75
2023-04-27T11:26:39.663Z,10.75
2023-04-27T11:29:09.968Z,12.50
2023-04-27T11:31:39.775Z,12.75
2023-04-27T11:34:07.825Z,6.00
2023-04-27T11:36:34.354Z,11.50
2023-04-27T11:39:00.863Z,8.50
2023-04-27T11:41:34.382Z,7.50
2023-04-27T11:44:07.878Z,17.50
2023-04-27T11:46:36.580Z,11.50
2023-04-27T11:49:06.644Z,11.00
2023-04-27T11:51:33.253Z,10.75
2023-04-27T11:54:03.982Z,7.75
2023-04-27T11:56:37.509Z,11.25
2023-04-27T11:59:04.508Z,14.00
2023-04-27T12:01:37.501Z,12.00
2023-04-27T12:04:07.582Z,6.25
2023-04-27T12:06:34.465Z,10.00
2023-04-27T12:09:01.304Z,7.75
2023-04-27T12:11:27.961Z,6.75
2023-04-27T12:13:55.209Z,11.00
2023-04-27T12:16:24.584Z,12.25
2023-04-27T12:18:51.423Z,16.25
2023-04-27T12:21:18.255Z,11.25
2023-04-27T12:23:44.837Z,8.50
2023-04-27T12:26:14.290Z,11.25
2023-04-27T12:28:41.737Z,11.00
2023-04-27T12:31:08.578Z,14.25
2023-04-27T12:33:35.351Z,11.00
2023-04-27T12:36:04.973Z,11.75
2023-04-27T12:38:31.418Z,7.75
2023-04-27T12:40:58.679Z,10.75
2023-04-27T12:43:25.271Z,16.00
2023-04-27T12:45:51.839Z,12.75
2023-04-27T12:48:18.380Z,13.25
2023-04-27T12:50:44.852Z,14.25
2023-04-27T12:53:11.656Z,14.75
2023-04-27T12:55:38.200Z,15.75
2023-04-27T12:58:07.659Z,24.00
2023-04-27T13:00:34.444Z,13.00
2023-04-27T13:03:01.152Z,10.25
2023-04-27T13:05:30.393Z,14.75
2023-04-27T13:07:58.292Z,13.25
2023-04-27T13:10:24.735Z,16.50
2023-04-27T13:12:51.313Z,10.50
2023-04-27T13:15:18.375Z,9.50
2023-04-27T13:17:45.130Z,8.50
2023-04-27T13:20:12.017Z,6.25
2023-04-27T13:22:40.836Z,6.50
2023-04-27T13:25:08.445Z,8.50
2023-04-27T13:27:34.967Z,6.00
2023-04-27T13:30:01.358Z,6.00
2023-04-27T13:32:27.838Z,7.00
2023-04-27T13:34:54.205Z,6.00
2023-04-27T13:37:22.002Z,7.00
2023-04-27T13:39:48.720Z,6.75
2023-04-27T13:42:15.158Z,5.50
2023-04-27T13:44:41.695Z,11.75
2023-04-27T13:47:08.380Z,6.00
2023-04-27T13:49:34.851Z,7.00
2023-04-27T13:52:01.851Z,12.75
2023-04-27T13:54:28.854Z,13.25
2023-04-27T13:56:55.422Z,25.00
2023-04-27T13:59:21.885Z,16.75
2023-04-27T14:01:48.426Z,12.75
2023-04-27T14:04:15.111Z,12.00
2023-04-27T14:06:41.731Z,11.25
2023-04-27T14:09:09.418Z,12.25
2023-04-27T14:11:45.347Z,8.25
2023-04-27T14:14:22.475Z,8.00
2023-04-27T14:16:51.275Z,7.75
2023-04-27T14:19:18.850Z,14.25
2023-04-27T14:21:45.333Z,7.75
2023-04-27T14:24:11.711Z,6.00
2023-04-27T14:26:38.134Z,11.25
2023-04-27T14:29:04.686Z,12.50
2023-04-27T14:31:31.898Z,16.00
2023-04-27T14:33:58.615Z,10.25
2023-04-27T14:36:25.075Z,14.25
2023-04-27T14:38:51.628Z,14.25
2023-04-27T14:41:18.190Z,15.50
2023-04-27T14:43:46.365Z,13.50
2023-04-27T14:48:46.705Z,23.25
2023-04-27T14:51:16.387Z,26.75
2023-04-27T14:53:43.986Z,10.00
2023-04-27T14:56:10.806Z,14.00
2023-04-27T14:58:37.216Z,14.25
2023-04-27T15:01:06.725Z,15.75
2023-04-27T15:03:33.483Z,11.25
2023-04-27T15:06:00.858Z,22.25
2023-04-27T15:08:27.544Z,12.33
2023-04-27T15:10:57.690Z,5.75
2023-04-27T15:13:24.861Z,8.00
2023-04-27T15:15:55.769Z,6.00
2023-04-27T15:18:22.546Z,18.50
2023-04-27T15:20:52.665Z,11.00
2023-04-27T15:23:19.538Z,8.75
2023-04-27T15:25:46.825Z,10.75
2023-04-27T15:28:14.019Z,6.50
2023-04-27T15:30:40.463Z,8.00
2023-04-27T15:33:09.582Z,8.00
2023-04-27T15:35:38.934Z,6.00
2023-04-27T15:38:05.822Z,7.25
2023-04-27T15:40:32.738Z,9.75
2023-04-27T15:42:59.198Z,9.50
2023-04-27T15:45:26.227Z,7.75
2023-04-27T15:47:52.783Z,13.25
2023-04-27T15:50:19.444Z,13.75
2023-04-27T15:52:45.899Z,18.50
2023-04-27T15:55:12.532Z,8.75
2023-04-27T15:57:39.082Z,9.75
2023-04-27T16:00:12.550Z,13.25
2023-04-27T16:02:39.757Z,16.75
2023-04-27T16:05:07.366Z,24.00
2023-04-27T16:07:34.543Z,23.25
2023-04-27T16:10:01.160Z,33.00
2023-04-27T16:12:28.277Z,15.50
2023-04-27T16:14:57.443Z,17.00
2023-04-27T16:17:24.366Z,16.00
2023-04-27T16:19:51.686Z,20.25
2023-04-27T16:22:20.534Z,26.00
2023-04-27T16:24:46.962Z,22.75
2023-04-27T16:27:17.550Z,25.50
2023-04-27T16:29:44.061Z,37.67
2023-04-27T16:32:11.050Z,27.75
2023-04-27T16:34:38.192Z,21.25
2023-04-27T16:37:04.733Z,30.67
2023-04-27T16:39:31.120Z,57.00
2023-04-27T16:41:57.622Z,17.00
2023-04-27T16:44:24.062Z,13.50
2023-04-27T16:46:53.365Z,17.50
2023-04-27T16:49:19.727Z,15.75
2023-04-27T16:51:46.160Z,4.00
2023-04-27T16:54:16.255Z,13.00
2023-04-27T16:56:42.849Z,13.00
2023-04-27T16:59:12.492Z,42.00
2023-04-27T17:01:39.284Z,31.00
2023-04-27T17:04:06.046Z,15.75
2023-04-27T17:06:33.008Z,19.75
2023-04-27T17:08:59.400Z,18.00
2023-04-27T17:11:26.572Z,21.25
2023-04-27T17:13:53.158Z,29.67
2023-04-27T17:16:19.720Z,32.33
2023-04-27T17:18:49.114Z,41.67
2023-04-27T17:21:16.734Z,35.75
2023-04-27T17:23:43.193Z,33.67
2023-04-27T17:26:10.080Z,22.50
2023-04-27T17:28:36.567Z,28.50
2023-04-27T17:31:03.234Z,26.33
2023-04-27T17:33:29.668Z,22.67
2023-04-27T17:35:56.282Z,26.67
2023-04-27T17:38:22.673Z,22.50
2023-04-27T17:40:49.085Z,27.00
2023-04-27T17:43:15.641Z,27.00
2023-04-27T17:45:42.031Z,30.67
2023-04-27T17:48:08.522Z,40.33
2023-04-27T17:50:36.026Z,30.67
2023-04-27T17:53:02.484Z,36.67
2023-04-27T17:55:29.229Z,39.67
2023-04-27T17:57:55.850Z,32.67
2023-04-27T18:00:22.972Z,20.50
2023-04-27T18:02:49.884Z,24.25
2023-04-27T18:05:16.897Z,31.33
2023-04-27T18:07:43.437Z,53.25
2023-04-27T18:10:09.995Z,60.75
2023-04-27T18:12:36.595Z,42.50
2023-04-27T18:15:05.557Z,47.00
2023-04-27T18:17:33.686Z,45.75
2023-04-27T18:20:09.474Z,56.50
2023-04-27T18:22:40.439Z,53.00
2023-04-27T18:25:09.883Z,58.00
2023-04-27T18:27:44.145Z,55.25
2023-04-27T18:30:19.628Z,60.50
2023-04-27T18:32:46.269Z,59.25
2023-04-27T18:44:04.416Z,65.50
2023-04-27T19:08:20.778Z,35.50
